createdAt,value
2023-04-16T00:01:35.782Z,4.44
2023-04-16T00:04:03.272Z,4.45
2023-04-16T00:06:30.439Z,4.45
2023-04-16T00:08:57.391Z,4.48
2023-04-16T00:11:24.284Z,4.54
2023-04-16T00:13:51.150Z,4.54
2023-04-16T00:16:18.027Z,4.46
2023-04-16T00:18:44.832Z,4.35
2023-04-16T00:21:11.856Z,4.37
2023-04-16T00:23:38.656Z,4.25
2023-04-16T00:26:05.431Z,4.25
2023-04-16T00:28:32.196Z,4.22
2023-04-16T00:30:59.599Z,4.18
2023-04-16T00:33:26.546Z,4.11
2023-04-16T00:35:53.448Z,4.10
2023-04-16T00:38:20.942Z,4.06
2023-04-16T00:40:47.751Z,4.12
2023-04-16T00:43:25.598Z,4.10
2023-04-16T00:45:53.423Z,4.10
2023-04-16T00:48:20.785Z,4.13
2023-04-16T00:50:48.522Z,4.11
2023-04-16T00:53:15.661Z,4.09
2023-04-16T00:55:42.783Z,4.01
2023-04-16T00:58:09.693Z,3.94
2023-04-16T01:00:36.565Z,3.94
2023-04-16T01:03:03.772Z,3.91
2023-04-16T01:05:31.128Z,3.88
2023-04-16T01:08:01.354Z,3.93
2023-04-16T01:10:28.341Z,3.97
2023-04-16T01:12:55.398Z,3.97
2023-04-16T01:15:22.369Z,3.96
2023-04-16T01:17:49.326Z,4.02
2023-04-16T01:20:16.257Z,3.98
2023-04-16T01:22:43.170Z,3.99
2023-04-16T01:25:13.881Z,3.92
2023-04-16T01:27:40.813Z,3.93
2023-04-16T01:30:08.414Z,3.86
2023-04-16T01:32:46.646Z,3.86
2023-04-16T01:35:13.532Z,3.79
2023-04-16T01:37:40.534Z,3.76
2023-04-16T01:40:08.227Z,3.80
2023-04-16T01:42:35.089Z,3.83
2023-04-16T01:45:02.052Z,3.81
2023-04-16T01:47:30.710Z,3.83
2023-04-16T01:49:57.548Z,3.89
2023-04-16T01:52:24.463Z,3.89
2023-04-16T01:54:52.018Z,3.88
2023-04-16T01:57:19.070Z,3.84
2023-04-16T01:59:46.361Z,3.82
2023-04-16T02:02:14.965Z,3.86
2023-04-16T02:04:43.210Z,3.85
2023-04-16T02:07:10.533Z,3.81
2023-04-16T02:09:38.051Z,3.81
2023-04-16T02:12:06.837Z,3.78
2023-04-16T02:14:34.269Z,3.77
2023-04-16T02:17:01.830Z,3.72
2023-04-16T02:19:37.319Z,3.65
2023-04-16T02:22:04.861Z,3.57
2023-04-16T02:24:31.817Z,3.58
2023-04-16T02:27:00.231Z,3.60
2023-04-16T02:29:27.071Z,3.58
2023-04-16T02:32:01.309Z,3.59
2023-04-16T02:34:30.297Z,3.59
2023-04-16T02:36:58.507Z,3.64
2023-04-16T02:39:25.608Z,3.61
2023-04-16T02:41:53.430Z,3.58
2023-04-16T02:44:21.187Z,3.53
2023-04-16T02:46:48.464Z,3.53
2023-04-16T02:49:16.003Z,3.61
2023-04-16T02:51:42.783Z,3.59
2023-04-16T02:54:09.706Z,3.65
2023-04-16T02:56:36.497Z,3.63
2023-04-16T02:59:03.477Z,3.66
2023-04-16T03:01:30.453Z,3.66
2023-04-16T03:03:57.549Z,3.63
2023-04-16T03:06:24.518Z,3.55
2023-04-16T03:08:51.345Z,3.50
2023-04-16T03:11:18.262Z,3.53
2023-04-16T03:13:45.196Z,3.49
2023-04-16T03:16:12.181Z,3.51
2023-04-16T03:18:39.417Z,3.52
2023-04-16T03:21:06.440Z,3.58
2023-04-16T03:23:33.745Z,3.65
2023-04-16T03:26:00.642Z,3.73
2023-04-16T03:28:28.112Z,3.73
2023-04-16T03:30:54.976Z,3.79
2023-04-16T03:33:22.905Z,3.79
2023-04-16T03:35:58.710Z,3.79
2023-04-16T03:38:28.622Z,3.80
2023-04-16T03:40:57.267Z,3.82
2023-04-16T03:43:24.284Z,3.88
2023-04-16T03:45:51.086Z,3.91
2023-04-16T03:48:20.929Z,3.96
2023-04-16T03:50:48.209Z,4.06
2023-04-16T03:53:16.742Z,4.15
2023-04-16T03:55:43.668Z,4.22
2023-04-16T03:58:10.798Z,4.21
2023-04-16T04:00:37.752Z,4.27
2023-04-16T04:03:12.787Z,4.37
2023-04-16T04:05:41.207Z,4.46
2023-04-16T04:08:10.930Z,4.49
2023-04-16T04:10:43.335Z,4.56
2023-04-16T04:24:06.693Z,4.91
2023-04-16T04:26:39.013Z,4.97
2023-04-16T04:34:34.532Z,5.08
2023-04-16T04:37:06.429Z,5.03
2023-04-16T04:39:33.344Z,5.07
2023-04-16T04:42:03.455Z,5.12
2023-04-16T04:44:31.002Z,5.28
2023-04-16T04:46:58.972Z,5.41
2023-04-16T04:49:27.357Z,5.49
2023-04-16T04:51:54.372Z,5.59
2023-04-16T04:54:21.613Z,5.75
2023-04-16T04:56:49.652Z,5.79
2023-04-16T04:59:16.870Z,5.81
2023-04-16T05:01:44.705Z,5.85
2023-04-16T05:04:11.974Z,5.89
2023-04-16T05:06:39.083Z,5.91
2023-04-16T05:09:06.233Z,5.96
2023-04-16T05:11:35.093Z,5.96
2023-04-16T05:14:02.690Z,5.95
2023-04-16T05:16:29.730Z,5.98
2023-04-16T05:22:00.732Z,6.13
2023-04-16T05:24:28.948Z,6.15
2023-04-16T05:26:57.724Z,6.14
2023-04-16T05:29:25.043Z,6.09
2023-04-16T05:31:53.924Z,6.07
2023-04-16T05:34:30.403Z,6.08
2023-04-16T05:36:59.290Z,6.22
2023-04-16T05:39:26.448Z,6.24
2023-04-16T05:41:53.232Z,6.28
2023-04-16T05:44:20.531Z,6.35
2023-04-16T05:46:48.473Z,6.49
2023-04-16T05:49:20.194Z,6.60
2023-04-16T05:51:50.880Z,6.80
2023-04-16T05:54:22.956Z,6.93
2023-04-16T05:56:55.540Z,7.00
2023-04-16T05:59:23.064Z,7.09
2023-04-16T06:04:35.970Z,7.17
2023-04-16T06:07:03.546Z,7.25
2023-04-16T06:09:30.755Z,7.31
2023-04-16T06:12:01.948Z,7.44
2023-04-16T06:14:29.277Z,7.57
2023-04-16T06:16:56.495Z,7.59
2023-04-16T06:19:23.914Z,7.68
2023-04-16T06:21:52.279Z,7.66
2023-04-16T06:24:19.679Z,7.78
2023-04-16T06:26:46.742Z,7.92
2023-04-16T06:29:14.010Z,7.98
2023-04-16T06:34:26.694Z,8.36
2023-04-16T06:36:56.947Z,8.46
2023-04-16T06:39:24.364Z,8.51
2023-04-16T06:41:51.354Z,8.52
2023-04-16T06:44:18.188Z,8.66
2023-04-16T06:46:45.567Z,8.69
2023-04-16T06:49:12.775Z,8.80
2023-04-16T06:51:41.894Z,8.91
2023-04-16T06:54:08.915Z,9.08
2023-04-16T06:56:37.556Z,9.23
2023-04-16T06:59:04.929Z,9.30
2023-04-16T07:01:31.971Z,9.24
2023-04-16T07:03:59.242Z,9.35
2023-04-16T07:06:27.259Z,9.42
2023-04-16T07:08:54.086Z,9.60
2023-04-16T07:11:21.334Z,9.59
2023-04-16T07:13:48.253Z,9.66
2023-04-16T07:16:15.088Z,9.72
2023-04-16T07:18:41.988Z,9.79
2023-04-16T07:21:08.876Z,9.87
2023-04-16T07:23:35.888Z,9.94
2023-04-16T07:26:02.840Z,9.79
2023-04-16T07:28:29.712Z,9.85
2023-04-16T07:30:56.638Z,9.97
2023-04-16T07:33:24.321Z,10.09
2023-04-16T07:35:51.749Z,10.08
2023-04-16T07:38:19.250Z,10.18
2023-04-16T07:40:46.182Z,10.32
2023-04-16T07:43:13.768Z,10.43
2023-04-16T07:45:41.410Z,10.42
2023-04-16T07:48:08.494Z,10.54
2023-04-16T07:50:35.423Z,10.55
2023-04-16T07:53:20.991Z,10.40
2023-04-16T07:55:48.201Z,10.27
2023-04-16T07:58:15.123Z,10.35
2023-04-16T08:00:41.979Z,10.48
2023-04-16T08:03:09.033Z,10.60
2023-04-16T08:05:36.062Z,10.63
2023-04-16T08:08:03.139Z,10.69
2023-04-16T08:10:30.089Z,10.77
2023-04-16T08:12:57.059Z,10.77
2023-04-16T08:15:24.049Z,10.96
2023-04-16T08:17:51.067Z,11.00
2023-04-16T08:20:19.354Z,11.11
2023-04-16T08:22:46.606Z,11.03
2023-04-16T08:25:13.536Z,11.05
2023-04-16T08:27:40.737Z,11.01
2023-04-16T08:30:08.037Z,11.07
2023-04-16T08:32:34.972Z,11.13
2023-04-16T08:35:02.299Z,11.16
2023-04-16T08:37:29.877Z,11.26
2023-04-16T08:39:56.707Z,11.36
2023-04-16T08:42:49.023Z,11.45
2023-04-16T08:45:17.407Z,11.50
2023-04-16T08:47:46.263Z,11.53
2023-04-16T08:50:14.904Z,11.52
2023-04-16T08:53:08.174Z,11.54
2023-04-16T08:55:38.680Z,11.58
2023-04-16T08:58:16.364Z,11.64
2023-04-16T09:00:43.719Z,11.61
2023-04-16T09:03:11.302Z,11.51
2023-04-16T09:05:39.718Z,11.39
2023-04-16T09:08:06.967Z,11.46
2023-04-16T09:10:34.337Z,11.51
2023-04-16T09:13:01.440Z,11.39
2023-04-16T09:15:30.643Z,11.48
2023-04-16T09:17:59.925Z,11.55
2023-04-16T09:20:28.117Z,11.59
2023-04-16T09:22:57.247Z,11.70
2023-04-16T09:25:25.093Z,11.72
2023-04-16T09:27:52.434Z,11.75
2023-04-16T09:30:22.434Z,11.88
2023-04-16T09:32:50.393Z,11.98
2023-04-16T09:35:18.589Z,12.03
2023-04-16T09:37:55.006Z,12.12
2023-04-16T09:40:27.517Z,12.08
2023-04-16T09:43:03.125Z,12.06
2023-04-16T09:45:31.736Z,12.12
2023-04-16T09:48:03.315Z,12.30
2023-04-16T09:50:30.632Z,12.28
2023-04-16T09:53:02.560Z,12.39
2023-04-16T09:55:36.305Z,12.46
2023-04-16T09:58:03.497Z,12.33
2023-04-16T10:00:31.728Z,12.27
2023-04-16T10:03:07.692Z,12.41
2023-04-16T10:05:36.057Z,12.30
2023-04-16T10:08:03.815Z,12.42
2023-04-16T10:10:30.906Z,12.42
2023-04-16T10:12:59.625Z,12.46
2023-04-16T10:15:27.525Z,12.61
2023-04-16T10:17:54.906Z,12.70
2023-04-16T10:20:23.054Z,12.88
2023-04-16T10:22:50.190Z,12.86
2023-04-16T10:25:17.634Z,12.93
2023-04-16T10:27:56.886Z,12.85
2023-04-16T10:30:24.631Z,12.89
2023-04-16T10:32:52.189Z,13.19
2023-04-16T10:35:22.421Z,13.31
2023-04-16T10:37:52.492Z,13.38
2023-04-16T10:40:29.096Z,13.31
2023-04-16T10:42:59.701Z,13.34
2023-04-16T10:45:47.666Z,13.37
2023-04-16T10:51:03.759Z,13.34
2023-04-16T10:56:22.737Z,13.27
2023-04-16T11:07:21.360Z,13.27
2023-04-16T11:12:48.875Z,13.55
2023-04-16T11:17:57.660Z,13.44
2023-04-16T11:23:15.486Z,13.84
2023-04-16T11:25:44.614Z,13.91
2023-04-16T11:28:12.999Z,14.12
2023-04-16T11:30:41.846Z,14.31
2023-04-16T11:33:11.753Z,14.59
2023-04-16T11:35:52.231Z,14.71
2023-04-16T11:38:19.534Z,14.81
2023-04-16T11:40:51.325Z,14.81
2023-04-16T11:43:27.475Z,14.79
2023-04-16T11:45:58.916Z,14.96
2023-04-16T11:51:07.670Z,15.30
2023-04-16T12:04:43.759Z,16.59
2023-04-16T12:10:08.680Z,16.48
2023-04-16T12:12:37.967Z,16.58
2023-04-16T12:23:27.729Z,17.73
2023-04-16T12:25:57.622Z,17.34
2023-04-16T12:28:43.416Z,17.11
2023-04-16T12:34:04.547Z,17.07
2023-04-16T12:36:41.160Z,17.00
2023-04-16T12:39:09.859Z,17.29
2023-04-16T12:41:38.730Z,17.51
2023-04-16T12:47:11.296Z,17.34
2023-04-16T12:55:03.594Z,17.31
2023-04-16T12:57:39.986Z,17.20
2023-04-16T13:00:08.640Z,17.29
2023-04-16T13:02:40.539Z,17.65
2023-04-16T13:05:08.773Z,17.86
2023-04-16T13:13:01.125Z,17.63
2023-04-16T13:15:28.285Z,17.72
2023-04-16T13:17:56.569Z,17.84
2023-04-16T13:20:24.636Z,17.86
2023-04-16T13:22:51.886Z,18.04
2023-04-16T13:25:19.766Z,18.06
2023-04-16T13:27:56.264Z,18.24
2023-04-16T13:30:24.038Z,18.04
2023-04-16T13:32:51.353Z,17.83
2023-04-16T13:38:00.649Z,17.87
2023-04-16T13:40:28.736Z,17.89
2023-04-16T13:45:37.572Z,17.99
2023-04-16T13:48:05.219Z,18.02
2023-04-16T13:50:32.864Z,17.79
2023-04-16T13:53:00.220Z,17.95
2023-04-16T13:55:32.259Z,18.02
2023-04-16T13:58:00.059Z,17.98
2023-04-16T14:00:37.102Z,18.00
2023-04-16T14:03:15.458Z,18.06
2023-04-16T14:11:11.944Z,18.06
2023-04-16T14:13:39.588Z,17.96
2023-04-16T14:18:49.335Z,18.03
2023-04-16T15:41:18.029Z,13.76
2023-04-16T15:43:46.612Z,13.80
2023-04-16T15:46:19.789Z,13.86
2023-04-16T15:48:47.291Z,13.95
2023-04-16T15:51:16.047Z,14.01
2023-04-16T15:53:48.565Z,13.81
2023-04-16T15:56:20.375Z,13.66
2023-04-16T16:06:50.754Z,13.35
2023-04-16T16:12:00.715Z,13.18
2023-04-16T16:14:27.697Z,13.10
2023-04-16T16:16:54.877Z,13.04
2023-04-16T16:22:02.990Z,12.93
2023-04-16T16:24:32.161Z,13.01
2023-04-16T16:27:03.557Z,12.99
2023-04-16T16:29:31.918Z,12.89
2023-04-16T16:31:59.213Z,12.98
2023-04-16T16:34:28.068Z,12.92
2023-04-16T16:36:55.144Z,12.88
2023-04-16T16:39:26.389Z,12.91
2023-04-16T16:41:53.345Z,12.88
2023-04-16T16:44:20.759Z,12.90
2023-04-16T16:47:06.711Z,12.90
2023-04-16T16:49:33.709Z,12.79
2023-04-16T16:52:03.012Z,12.67
2023-04-16T16:54:29.817Z,12.66
2023-04-16T16:56:57.059Z,12.69
2023-04-16T16:59:24.310Z,12.69
2023-04-16T17:01:51.438Z,12.67
2023-04-16T17:04:20.345Z,12.65
2023-04-16T17:06:48.932Z,12.61
2023-04-16T17:09:16.973Z,12.60
2023-04-16T17:11:44.109Z,12.54
2023-04-16T17:14:30.419Z,12.49
2023-04-16T17:17:16.261Z,12.42
2023-04-16T17:19:44.230Z,12.42
2023-04-16T17:22:11.267Z,12.40
2023-04-16T17:24:38.693Z,12.42
2023-04-16T17:27:24.905Z,12.40
2023-04-16T17:30:11.139Z,12.38
2023-04-16T17:32:38.404Z,12.31
2023-04-16T17:35:24.252Z,12.26
2023-04-16T17:37:51.816Z,12.18
2023-04-16T17:40:18.844Z,12.17
2023-04-16T17:42:46.876Z,12.17
2023-04-16T17:45:13.857Z,12.21
2023-04-16T17:47:40.965Z,12.28
2023-04-16T17:50:08.617Z,12.32
2023-04-16T17:52:37.583Z,12.29
2023-04-16T17:55:05.233Z,12.30
2023-04-16T17:57:32.443Z,12.21
2023-04-16T18:00:17.927Z,12.12
2023-04-16T18:02:45.507Z,12.06
2023-04-16T18:05:31.372Z,12.04
2023-04-16T18:07:58.289Z,12.03
2023-04-16T18:10:25.319Z,12.06
2023-04-16T18:12:52.234Z,12.00
2023-04-16T18:15:19.264Z,11.93
2023-04-16T18:17:46.491Z,11.94
2023-04-16T18:20:17.023Z,11.99
2023-04-16T18:22:43.932Z,12.01
2023-04-16T18:25:34.502Z,11.99
2023-04-16T18:28:02.420Z,11.94
2023-04-16T18:30:49.541Z,11.93
2023-04-16T18:35:46.406Z,11.89
2023-04-16T18:38:16.456Z,11.85
2023-04-16T18:40:43.270Z,11.80
2023-04-16T18:43:10.151Z,11.80
2023-04-16T18:45:37.243Z,11.77
2023-04-16T18:48:04.314Z,11.80
2023-04-16T18:50:31.460Z,11.79
2023-04-16T18:52:58.317Z,11.80
2023-04-16T18:55:25.355Z,11.81
2023-04-16T18:57:52.335Z,11.75
2023-04-16T19:00:20.129Z,11.66
2023-04-16T19:02:47.852Z,11.60
2023-04-16T19:05:14.840Z,11.60
2023-04-16T19:07:41.964Z,11.57
2023-04-16T19:10:09.103Z,11.56
2023-04-16T19:12:36.261Z,11.52
2023-04-16T19:15:03.225Z,11.51
2023-04-16T19:17:30.562Z,11.53
2023-04-16T19:19:57.497Z,11.53
2023-04-16T19:22:24.366Z,11.56
2023-04-16T19:24:51.507Z,11.45
2023-04-16T19:27:18.454Z,11.40
2023-04-16T19:29:46.864Z,11.35
2023-04-16T19:32:14.560Z,11.28
2023-04-16T19:34:41.615Z,11.25
2023-04-16T19:37:08.489Z,11.22
2023-04-16T19:39:35.585Z,11.17
2023-04-16T19:42:02.770Z,11.12
2023-04-16T19:44:29.694Z,11.06
2023-04-16T19:46:56.702Z,11.04
2023-04-16T19:49:33.770Z,11.02
2023-04-16T19:52:01.612Z,10.99
2023-04-16T19:54:28.938Z,10.90
2023-04-16T19:56:57.255Z,10.95
2023-04-16T19:59:25.202Z,10.83
2023-04-16T20:01:52.044Z,10.89
2023-04-16T20:04:19.048Z,10.84
2023-04-16T20:06:46.108Z,10.82
2023-04-16T20:09:13.228Z,10.84
2023-04-16T20:11:40.243Z,10.83
2023-04-16T20:14:07.064Z,10.81
2023-04-16T20:16:34.074Z,10.82
2023-04-16T20:19:05.258Z,10.84
2023-04-16T20:21:34.153Z,10.82
2023-04-16T20:24:00.988Z,10.81
2023-04-16T20:26:28.551Z,10.82
2023-04-16T20:28:55.536Z,10.86
2023-04-16T20:31:22.539Z,10.87
2023-04-16T20:33:49.465Z,10.82
2023-04-16T20:36:16.321Z,10.81
2023-04-16T20:38:43.792Z,10.82
2023-04-16T20:41:11.146Z,10.83
2023-04-16T20:43:40.940Z,10.88
2023-04-16T20:46:08.648Z,10.89
2023-04-16T20:48:35.639Z,10.91
2023-04-16T20:51:03.826Z,10.86
2023-04-16T20:53:34.004Z,10.76
2023-04-16T20:56:01.087Z,10.75
2023-04-16T20:58:28.071Z,10.72
2023-04-16T21:00:55.771Z,10.73
2023-04-16T21:03:23.253Z,10.77
2023-04-16T21:05:53.885Z,10.79
2023-04-16T21:08:21.165Z,10.84
2023-04-16T21:10:48.179Z,10.80
2023-04-16T21:13:15.202Z,10.76
2023-04-16T21:15:44.963Z,10.72
2023-04-16T21:18:12.002Z,10.69
2023-04-16T21:20:39.245Z,10.66
2023-04-16T21:23:07.034Z,10.67
2023-04-16T21:25:33.941Z,10.60
2023-04-16T21:28:00.882Z,10.57
2023-04-16T21:30:27.858Z,10.57
2023-04-16T21:32:55.119Z,10.55
2023-04-16T21:35:21.991Z,10.47
2023-04-16T21:37:48.997Z,10.43
2023-04-16T21:40:15.980Z,10.42
2023-04-16T21:42:42.985Z,10.39
2023-04-16T21:45:10.544Z,10.40
2023-04-16T21:47:37.847Z,10.44
2023-04-16T21:50:04.941Z,10.48
2023-04-16T21:52:33.033Z,10.45
2023-04-16T21:55:00.517Z,10.39
2023-04-16T21:57:27.427Z,10.36
2023-04-16T21:59:54.253Z,10.40
2023-04-16T22:02:22.361Z,10.44
2023-04-16T22:04:50.742Z,10.40
2023-04-16T22:07:20.853Z,10.38
2023-04-16T22:09:47.725Z,10.36
2023-04-16T22:12:14.630Z,10.35
2023-04-16T22:14:49.082Z,10.27
2023-04-16T22:17:23.902Z,10.16
2023-04-16T22:19:51.041Z,10.19
2023-04-16T22:22:18.740Z,10.15
2023-04-16T22:24:46.809Z,10.13
2023-04-16T22:27:13.632Z,10.09
2023-04-16T22:29:40.545Z,10.10
2023-04-16T22:32:07.425Z,10.05
2023-04-16T22:34:34.378Z,10.01
2023-04-16T22:37:03.138Z,9.99
2023-04-16T22:39:30.975Z,9.92
2023-04-16T22:41:57.885Z,9.90
2023-04-16T22:44:24.895Z,9.86
2023-04-16T22:46:52.075Z,9.81
2023-04-16T22:49:18.969Z,9.77
2023-04-16T22:51:45.941Z,9.72
2023-04-16T22:54:13.987Z,9.69
2023-04-16T22:56:41.193Z,9.68
2023-04-16T22:59:08.291Z,9.65
2023-04-16T23:01:35.196Z,9.61
2023-04-16T23:04:02.275Z,9.59
2023-04-16T23:06:29.271Z,9.60
2023-04-16T23:08:56.204Z,9.57
2023-04-16T23:11:23.141Z,9.49
2023-04-16T23:13:49.942Z,9.51
2023-04-16T23:16:16.916Z,9.49
2023-04-16T23:18:43.855Z,9.52
2023-04-16T23:21:11.152Z,9.55
2023-04-16T23:23:38.039Z,9.54
2023-04-16T23:26:04.957Z,9.50
2023-04-16T23:28:31.796Z,9.46
2023-04-16T23:30:58.760Z,9.43
2023-04-16T23:33:25.836Z,9.43
2023-04-16T23:35:52.908Z,9.47
2023-04-16T23:38:19.797Z,9.46
2023-04-16T23:40:46.655Z,9.45
2023-04-16T23:43:13.550Z,9.48
2023-04-16T23:45:40.972Z,9.51
2023-04-16T23:48:07.850Z,9.45
2023-04-16T23:50:34.702Z,9.42
2023-04-16T23:53:01.492Z,9.44
2023-04-16T23:55:28.422Z,9.45
2023-04-16T23:57:55.393Z,9.47
